Time;durP1;ratioP1;P1;durP2;ratioP2;P2;SDS_P1;SDS_P2;PMS_P1;PMS_P2;Temp;Humidity;BMP_temperature;BMP_pressure;BME280_temperature;BME280_humidity;BME280_pressure;Samples;Min_cycle;Max_cycle;Signal;HPM_P1;HPM_P2
2023/02/06 00:02:19;;;;;;;232.73;52.50;;;0.80;99.90;;;;;;6134776;23;20097;-78
2023/02/06 00:05:08;;;;;;;250.07;53.45;;;0.80;99.90;;;;;;6134676;23;20036;-79
2023/02/06 00:07:55;;;;;;;229.13;52.20;;;0.80;99.90;;;;;;6134400;23;20026;-80
2023/02/06 00:10:42;;;;;;;228.38;52.10;;;0.80;99.90;;;;;;6134587;23;20068;-78
2023/02/06 00:13:29;;;;;;;250.98;56.08;;;0.80;99.90;;;;;;6163160;23;20048;-79
2023/02/06 00:16:29;;;;;;;220.80;52.08;;;0.90;99.90;;;;;;6156152;23;20060;-78
2023/02/06 00:19:16;;;;;;;237.10;52.70;;;0.80;99.90;;;;;;6153376;23;20033;-78
2023/02/06 00:22:03;;;;;;;221.63;54.05;;;0.80;99.90;;;;;;6154085;23;20791;-77
2023/02/06 00:24:50;;;;;;;226.60;53.90;;;0.80;99.90;;;;;;6154933;23;20094;-78
2023/02/06 00:27:38;;;;;;;251.13;54.10;;;0.80;99.90;;;;;;6154896;23;20028;-78
2023/02/06 00:30:25;;;;;;;239.10;53.95;;;0.80;99.90;;;;;;6153849;23;20123;-77
2023/02/06 00:33:12;;;;;;;224.32;53.60;;;0.80;99.90;;;;;;6153041;23;20037;-78
2023/02/06 00:35:59;;;;;;;232.18;56.42;;;0.80;99.90;;;;;;6153727;23;20292;-79
2023/02/06 00:38:46;;;;;;;251.65;55.00;;;0.80;99.90;;;;;;6156068;23;20061;-78
2023/02/06 00:41:37;;;;;;;243.13;55.08;;;0.80;99.90;;;;;;6152955;23;20021;-79
2023/02/06 00:44:24;;;;;;;261.65;55.13;;;0.80;99.90;;;;;;6154301;23;20036;-80
2023/02/06 00:47:11;;;;;;;403.42;60.15;;;0.80;99.90;;;;;;6154097;23;20057;-80
2023/02/06 00:49:58;;;;;;;319.10;58.72;;;0.80;99.90;;;;;;6156454;23;20057;-77
2023/02/06 00:52:46;;;;;;;254.32;56.40;;;0.70;99.90;;;;;;6153013;23;20022;-80
2023/02/06 00:55:35;;;;;;;473.35;65.45;;;0.70;99.90;;;;;;6154187;23;20415;-79
2023/02/06 00:58:25;;;;;;;226.10;53.20;;;0.70;99.90;;;;;;6153122;23;20326;-78
2023/02/06 01:01:12;;;;;;;319.33;62.10;;;0.70;99.90;;;;;;6161461;23;20073;-78
2023/02/06 01:04:04;;;;;;;518.38;70.45;;;0.70;99.90;;;;;;6153137;23;20025;-78
2023/02/06 01:06:51;;;;;;;436.00;64.82;;;0.70;99.90;;;;;;6153056;23;20030;-78
2023/02/06 01:09:40;;;;;;;676.03;79.78;;;0.70;99.90;;;;;;6153602;23;20403;-78
2023/02/06 01:12:27;;;;;;;492.00;64.93;;;0.70;99.90;;;;;;6154538;23;20025;-78
2023/02/06 01:15:14;;;;;;;606.40;73.53;;;0.70;99.90;;;;;;6154712;23;20033;-79
2023/02/06 01:18:02;;;;;;;444.88;66.53;;;0.70;99.90;;;;;;6131777;23;20117;-78
2023/02/06 01:20:49;;;;;;;623.22;74.18;;;0.70;99.90;;;;;;6155345;23;20841;-79
2023/02/06 01:23:38;;;;;;;540.28;73.72;;;0.70;99.90;;;;;;6153521;23;20104;-80
2023/02/06 01:26:28;;;;;;;545.20;74.22;;;0.70;99.90;;;;;;6153642;23;20328;-78
2023/02/06 01:29:15;;;;;;;512.97;73.80;;;0.70;99.90;;;;;;6134220;23;20025;-79
2023/02/06 01:32:02;;;;;;;565.25;71.85;;;0.70;99.90;;;;;;6153059;23;20036;-79
2023/02/06 01:34:49;;;;;;;629.35;75.53;;;0.70;99.90;;;;;;6154020;23;20029;-78
2023/02/06 01:37:37;;;;;;;866.97;95.45;;;0.80;99.90;;;;;;6153462;23;20034;-79
2023/02/06 01:40:25;;;;;;;584.80;77.22;;;0.80;99.90;;;;;;6154555;23;20029;-78
2023/02/06 01:43:17;;;;;;;464.42;72.38;;;0.80;99.90;;;;;;6133241;23;20152;-79
2023/02/06 01:46:05;;;;;;;647.80;84.45;;;0.80;99.90;;;;;;6153637;23;20041;-78
2023/02/06 01:48:53;;;;;;;460.33;70.78;;;0.80;99.90;;;;;;6160097;23;20032;-79
2023/02/06 01:51:40;;;;;;;717.55;88.93;;;0.80;99.90;;;;;;6154620;23;20373;-79
2023/02/06 01:54:28;;;;;;;367.83;65.07;;;0.80;99.90;;;;;;6134680;23;20029;-78
2023/02/06 01:57:15;;;;;;;391.60;65.85;;;0.80;99.90;;;;;;6153003;23;20109;-80
2023/02/06 02:00:07;;;;;;;737.35;86.53;;;0.80;99.90;;;;;;6154284;23;20053;-79
2023/02/06 02:02:54;;;;;;;498.38;70.75;;;0.80;99.90;;;;;;6154212;23;20037;-78
2023/02/06 02:05:45;;;;;;;444.55;68.50;;;0.80;99.90;;;;;;6152148;23;20053;-78
2023/02/06 02:08:43;;;;;;;347.80;63.15;;;0.80;99.90;;;;;;6154850;23;20036;-78
2023/02/06 02:11:35;;;;;;;377.60;64.07;;;0.80;99.90;;;;;;6133673;23;20357;-78
2023/02/06 02:14:22;;;;;;;;;;;0.80;99.90;;;;;;6154489;23;20029;-79
2023/02/06 02:17:31;;;;;;;306.42;59.28;;;0.80;99.90;;;;;;6155547;23;19924;-78
2023/02/06 02:20:27;;;;;;;351.45;65.45;;;0.80;99.90;;;;;;6132725;23;20052;-78
2023/02/06 02:23:48;;;;;;;338.45;62.72;;;0.80;99.90;;;;;;6154030;23;20057;-78
2023/02/06 02:26:58;;;;;;;361.40;62.67;;;0.80;99.90;;;;;;6153874;23;20458;-80
2023/02/06 02:30:23;;;;;;;305.92;62.97;;;0.80;99.90;;;;;;6133757;23;20029;-80
2023/02/06 02:33:30;;;;;;;264.67;54.75;;;0.80;99.90;;;;;;6157692;23;20033;-82
2023/02/06 02:36:50;;;;;;;367.38;65.47;;;0.80;99.90;;;;;;6160842;23;20036;-79
2023/02/06 02:39:52;;;;;;;335.02;61.25;;;0.80;99.90;;;;;;6136221;23;20029;-79
2023/02/06 02:42:47;;;;;;;358.33;64.60;;;0.80;99.90;;;;;;6157145;23;20029;-80
2023/02/06 02:45:42;;;;;;;402.20;67.40;;;0.90;99.90;;;;;;6159421;23;20179;-78
2023/02/06 02:48:34;;;;;;;365.52;62.63;;;0.80;99.90;;;;;;6161652;23;20061;-79
2023/02/06 02:51:23;;;;;;;428.83;64.55;;;0.90;99.90;;;;;;6159902;23;20095;-79
2023/02/06 02:54:10;;;;;;;697.75;78.60;;;0.80;99.90;;;;;;6155659;23;20121;-78
2023/02/06 02:57:13;;;;;;;766.13;78.78;;;0.80;99.90;;;;;;6156566;23;20029;-80
2023/02/06 03:00:00;;;;;;;606.55;72.07;;;0.80;99.90;;;;;;6157052;23;20087;-78
2023/02/06 03:02:50;;;;;;;747.90;78.43;;;0.80;99.90;;;;;;6157264;23;20036;-80
2023/02/06 03:05:50;;;;;;;952.33;91.80;;;0.80;99.90;;;;;;6156059;23;20101;-78
2023/02/06 03:08:52;;;;;;;791.53;80.18;;;0.80;99.90;;;;;;6155863;23;20057;-78
2023/02/06 03:11:45;;;;;;;676.45;73.95;;;0.70;99.90;;;;;;6154039;23;20475;-78
2023/02/06 03:14:43;;;;;;;762.17;78.78;;;0.80;99.90;;;;;;6156709;23;20044;-78
2023/02/06 03:18:11;;;;;;;628.65;69.00;;;0.70;99.90;;;;;;6116331;23;20030;-79
2023/02/06 03:21:06;;;;;;;791.20;82.03;;;0.70;99.90;;;;;;6039183;23;20027;-79
2023/02/06 03:23:57;;;;;;;758.25;81.53;;;0.70;99.90;;;;;;6038626;23;20091;-79
2023/02/06 03:26:49;;;;;;;742.80;79.05;;;0.70;99.90;;;;;;6159174;23;20068;-78
2023/02/06 03:29:41;;;;;;;957.63;95.78;;;0.70;99.90;;;;;;6156044;23;20463;-78
2023/02/06 03:32:34;;;;;;;764.15;83.95;;;0.80;99.90;;;;;;6156483;23;20105;-77
2023/02/06 03:35:28;;;;;;;805.25;87.00;;;0.70;99.90;;;;;;6156050;23;20120;-79
2023/02/06 03:38:15;;;;;;;836.03;85.40;;;0.70;99.90;;;;;;6156247;23;20029;-78
2023/02/06 03:41:04;;;;;;;1055.93;102.32;;;0.70;99.90;;;;;;6133981;23;20025;-79
2023/02/06 03:43:53;;;;;;;741.58;80.60;;;0.70;99.90;;;;;;6154951;23;20302;-78
2023/02/06 03:46:42;;;;;;;665.78;75.28;;;0.70;99.90;;;;;;6136649;23;20018;-78
2023/02/06 03:49:32;;;;;;;782.60;83.47;;;0.70;99.90;;;;;;6154672;23;20029;-79
2023/02/06 03:52:27;;;;;;;717.90;75.28;;;0.70;99.90;;;;;;6134053;23;20495;-80
2023/02/06 03:55:25;;;;;;;718.45;78.15;;;0.70;99.90;;;;;;6155122;23;20069;-80
2023/02/06 03:58:13;;;;;;;852.40;84.10;;;0.70;99.90;;;;;;6154476;23;20097;-77
2023/02/06 04:01:04;;;;;;;664.65;77.03;;;0.70;99.90;;;;;;6154540;23;20036;-79
2023/02/06 04:03:51;;;;;;;518.88;64.05;;;0.70;99.90;;;;;;6155862;23;20035;-79
2023/02/06 04:06:38;;;;;;;985.55;97.40;;;0.70;99.90;;;;;;6155319;23;20109;-79
2023/02/06 04:09:26;;;;;;;663.92;80.07;;;0.60;99.90;;;;;;6158188;23;20025;-79
2023/02/06 04:12:14;;;;;;;801.83;82.30;;;0.70;99.90;;;;;;6159762;23;20089;-79
2023/02/06 04:15:01;;;;;;;706.88;78.80;;;0.70;99.90;;;;;;6159908;23;20128;-78
2023/02/06 04:17:50;;;;;;;584.08;72.78;;;0.70;99.90;;;;;;6155073;23;20087;-79
2023/02/06 04:20:47;;;;;;;793.28;84.90;;;0.60;99.90;;;;;;6154268;23;20421;-80
2023/02/06 04:23:34;;;;;;;373.48;59.05;;;0.70;99.90;;;;;;6154077;23;20105;-79
2023/02/06 04:26:23;;;;;;;1099.47;106.38;;;0.70;99.90;;;;;;6154570;23;20041;-79
2023/02/06 04:29:11;;;;;;;739.45;82.50;;;0.60;99.90;;;;;;6153904;23;20100;-79
2023/02/06 04:32:01;;;;;;;801.72;88.70;;;0.60;99.90;;;;;;6134705;23;20026;-79
2023/02/06 04:34:48;;;;;;;796.55;85.90;;;0.70;99.90;;;;;;6154729;23;20030;-79
2023/02/06 04:37:36;;;;;;;757.58;81.55;;;0.60;99.90;;;;;;6134441;23;20056;-78
2023/02/06 04:40:26;;;;;;;670.75;81.88;;;0.60;99.90;;;;;;6155716;23;20113;-80
2023/02/06 04:43:13;;;;;;;650.30;77.70;;;0.60;99.90;;;;;;6154103;23;20022;-79
2023/02/06 04:46:06;;;;;;;670.30;78.13;;;0.70;99.90;;;;;;6153109;23;20419;-79
2023/02/06 04:48:59;;;;;;;757.30;89.68;;;0.60;99.90;;;;;;6132078;23;20026;-78
2023/02/06 04:51:48;;;;;;;777.73;93.70;;;0.60;99.90;;;;;;6153667;23;20033;-78
2023/02/06 04:54:40;;;;;;;623.95;75.53;;;0.60;99.90;;;;;;6133707;23;20111;-78
2023/02/06 04:57:27;;;;;;;529.13;63.50;;;0.60;99.90;;;;;;6153880;23;20451;-79
2023/02/06 05:00:15;;;;;;;778.08;85.82;;;0.60;99.90;;;;;;6156428;23;20025;-79
2023/02/06 05:03:11;;;;;;;491.85;67.60;;;0.60;99.90;;;;;;6158528;23;20026;-79
2023/02/06 05:06:00;;;;;;;500.65;72.88;;;0.60;99.90;;;;;;6134135;23;20148;-80
2023/02/06 05:08:49;;;;;;;539.25;72.60;;;0.60;99.90;;;;;;6154278;23;20120;-78
2023/02/06 05:11:40;;;;;;;473.50;72.68;;;0.60;99.90;;;;;;6132648;23;20134;-77
2023/02/06 05:14:27;;;;;;;444.50;73.65;;;0.60;99.90;;;;;;6154113;23;20322;-80
2023/02/06 05:17:14;;;;;;;428.42;69.20;;;0.60;99.90;;;;;;6153524;23;20033;-81
2023/02/06 05:20:04;;;;;;;436.73;69.90;;;0.60;99.90;;;;;;6134153;23;20436;-79
2023/02/06 05:22:56;;;;;;;444.55;71.90;;;0.60;99.90;;;;;;6133001;23;20054;-79
2023/02/06 05:25:46;;;;;;;292.00;48.47;;;0.60;99.90;;;;;;6154935;23;20101;-76
2023/02/06 05:28:33;;;;;;;369.88;68.38;;;0.60;99.90;;;;;;6154553;23;20088;-80
2023/02/06 05:31:20;;;;;;;381.38;71.57;;;0.60;99.90;;;;;;6155736;23;20097;-80
2023/02/06 05:34:10;;;;;;;375.05;70.55;;;0.60;99.90;;;;;;6153518;23;20088;-79
2023/02/06 05:36:57;;;;;;;317.67;65.57;;;0.50;99.90;;;;;;6133907;23;20068;-79
2023/02/06 05:39:44;;;;;;;321.30;66.47;;;0.60;99.90;;;;;;6134092;23;20073;-80
2023/02/06 05:42:31;;;;;;;375.98;71.82;;;0.60;99.90;;;;;;6134055;23;20021;-81
2023/02/06 05:45:21;;;;;;;323.15;67.95;;;0.50;99.90;;;;;;6134205;23;20088;-81
2023/02/06 05:48:10;;;;;;;369.10;73.80;;;0.50;99.90;;;;;;6156853;23;20026;-83
2023/02/06 05:50:57;;;;;;;332.38;70.45;;;0.50;99.90;;;;;;6157861;23;20040;-81
2023/02/06 05:53:52;;;;;;;342.80;72.30;;;0.50;99.90;;;;;;6155610;23;20025;-81
2023/02/06 05:56:39;;;;;;;314.05;69.82;;;0.60;99.90;;;;;;6136393;23;20076;-79
2023/02/06 05:59:28;;;;;;;299.52;68.93;;;0.60;99.90;;;;;;6154917;23;20156;-80
2023/02/06 06:02:16;;;;;;;300.08;69.68;;;0.50;99.90;;;;;;6155000;23;20032;-81
2023/02/06 06:05:06;;;;;;;314.58;72.30;;;0.50;99.90;;;;;;6155291;23;20409;-79
2023/02/06 06:07:53;;;;;;;309.63;73.05;;;0.50;99.90;;;;;;6154180;23;20037;-82
2023/02/06 06:10:42;;;;;;;311.83;73.75;;;0.50;99.90;;;;;;6152817;23;20411;-82
2023/02/06 06:13:30;;;;;;;318.95;76.30;;;0.50;99.90;;;;;;6155511;23;20026;-81
2023/02/06 06:16:17;;;;;;;292.92;73.78;;;0.50;99.90;;;;;;6155937;23;20328;-85
2023/02/06 06:19:04;;;;;;;304.88;73.10;;;0.50;99.90;;;;;;6156815;23;20025;-83
2023/02/06 06:21:54;;;;;;;324.48;74.57;;;0.50;99.90;;;;;;6157041;23;20057;-83
2023/02/06 06:24:44;;;;;;;326.40;75.57;;;0.50;99.90;;;;;;6157376;23;20032;-82
2023/02/06 06:27:34;;;;;;;252.93;61.63;;;0.50;99.90;;;;;;6195522;23;20053;-83
2023/02/06 06:30:21;;;;;;;246.90;65.50;;;0.50;99.90;;;;;;6187573;23;20107;-83
2023/02/06 06:33:08;;;;;;;302.42;68.50;;;0.40;99.90;;;;;;6184972;23;20549;-83
2023/02/06 06:35:55;;;;;;;255.05;65.88;;;0.40;99.90;;;;;;6195112;23;20131;-84
2023/02/06 06:38:43;;;;;;;236.93;62.90;;;0.40;99.90;;;;;;6191555;23;20036;-84
2023/02/06 15:46:16;;;;;;;11.77;6.47;;;0.60;99.90;;;;;;6166835;23;20021;-87
2023/02/06 15:49:33;;;;;;;14.05;8.07;;;0.60;99.90;;;;;;6167997;23;20515;-86
2023/02/06 15:52:41;;;;;;;15.25;8.65;;;0.60;99.90;;;;;;6188587;23;20021;-88
2023/02/06 15:55:43;;;;;;;32.15;15.68;;;0.50;99.90;;;;;;6187561;23;20025;-87
2023/02/06 15:58:36;;;;;;;21.38;11.23;;;0.50;99.90;;;;;;6165222;23;20025;-87
2023/02/06 16:01:29;;;;;;;10.70;7.63;;;0.50;99.90;;;;;;6166883;23;20025;-85
2023/02/06 16:04:22;;;;;;;;;;;0.40;99.90;;;;;;6186354;23;20051;-85
2023/02/06 16:07:56;;;;;;;14.90;7.78;;;0.40;99.90;;;;;;6166274;23;19931;-87
2023/02/06 16:10:54;;;;;;;15.48;8.38;;;0.40;99.90;;;;;;6105266;23;20018;-87
2023/02/06 16:13:44;;;;;;;13.27;8.30;;;0.40;99.90;;;;;;6105966;23;20026;-86
2023/02/06 16:16:32;;;;;;;14.55;8.13;;;0.40;99.90;;;;;;6186124;23;20025;-86
2023/02/06 16:20:12;;;;;;;13.68;8.27;;;0.40;99.90;;;;;;6201030;23;20057;-86
2023/02/06 16:23:20;;;;;;;14.60;8.02;;;0.40;99.90;;;;;;6166770;23;20021;-86
2023/02/06 16:26:27;;;;;;;14.10;7.93;;;0.40;99.90;;;;;;6187969;23;20120;-89
2023/02/06 16:29:26;;;;;;;27.45;8.65;;;0.30;99.90;;;;;;6188694;23;20071;-86
2023/02/06 16:32:27;;;;;;;10.23;7.55;;;0.30;99.90;;;;;;6194886;23;20025;-86
2023/02/06 16:35:17;;;;;;;14.05;8.05;;;0.30;99.90;;;;;;6168872;23;20064;-84
2023/02/06 16:38:08;;;;;;;14.90;7.30;;;0.30;99.90;;;;;;6166090;23;20036;-86
2023/02/06 16:41:01;;;;;;;15.77;8.30;;;0.20;99.90;;;;;;6168024;23;20129;-84
2023/02/06 16:43:51;;;;;;;15.02;8.55;;;0.20;99.90;;;;;;6170666;23;20083;-88
2023/02/06 16:46:40;;;;;;;13.80;8.98;;;0.20;99.90;;;;;;6191433;23;20021;-88
2023/02/06 16:49:32;;;;;;;16.17;7.63;;;0.10;99.90;;;;;;6168571;23;20083;-86
2023/02/06 16:52:32;;;;;;;13.30;8.23;;;0.10;1.00;;;;;;6189948;23;20025;-88
2023/02/06 16:55:26;;;;;;;12.68;8.05;;;0.10;1.00;;;;;;6190948;23;20122;-88
2023/02/06 16:58:29;;;;;;;9.85;5.85;;;0.10;1.00;;;;;;6167177;23;20025;-89
2023/02/06 17:01:23;;;;;;;17.00;7.70;;;0.10;1.00;;;;;;6189034;23;20036;-91
2023/02/06 17:04:11;;;;;;;18.25;8.70;;;0.10;1.00;;;;;;6168341;23;20029;-89
2023/02/06 17:06:59;;;;;;;21.83;10.38;;;0.00;1.00;;;;;;6202489;23;20029;-85
2023/02/06 17:09:50;;;;;;;16.70;9.40;;;0.00;1.00;;;;;;6195819;23;20052;-89
2023/02/06 17:12:39;;;;;;;12.95;8.13;;;0.10;1.00;;;;;;6168708;23;20032;-90
2023/02/06 17:15:26;;;;;;;22.42;12.07;;;0.10;1.00;;;;;;6189755;23;20025;-88
2023/02/06 17:18:16;;;;;;;24.50;11.55;;;0.00;1.00;;;;;;6193999;23;20021;-86
2023/02/06 17:21:06;;;;;;;29.27;11.73;;;0.00;1.00;;;;;;6183524;23;20029;-81
2023/02/06 17:23:55;;;;;;;25.40;11.90;;;0.00;1.00;;;;;;6185521;23;20021;-81
2023/02/06 17:26:43;;;;;;;16.20;10.10;;;0.00;1.00;;;;;;6185620;23;20024;-81
2023/02/06 17:29:31;;;;;;;13.68;8.25;;;0.00;1.00;;;;;;6183817;23;20040;-82
2023/02/06 17:32:22;;;;;;;11.65;7.40;;;0.00;1.00;;;;;;6184589;23;20327;-81
2023/02/06 17:35:09;;;;;;;9.65;6.50;;;0.00;1.00;;;;;;6183032;23;20145;-82
2023/02/06 17:37:57;;;;;;;12.32;7.32;;;-0.10;1.00;;;;;;6184662;23;20040;-83
2023/02/06 17:40:45;;;;;;;14.13;7.18;;;-0.10;23.30;;;;;;6183905;23;20037;-82
2023/02/06 17:43:35;;;;;;;9.75;6.57;;;0.00;48.30;;;;;;6185475;23;20025;-82
2023/02/06 17:46:25;;;;;;;9.90;6.15;;;-0.10;86.60;;;;;;6185561;23;20025;-81
2023/02/06 17:49:14;;;;;;;13.00;6.03;;;-0.10;99.90;;;;;;6184904;23;20120;-83
2023/02/06 17:52:04;;;;;;;9.60;6.40;;;-0.10;99.90;;;;;;6165283;23;20029;-82
2023/02/06 17:54:51;;;;;;;13.15;7.07;;;-0.10;99.90;;;;;;6186633;23;20184;-82
2023/02/06 17:57:39;;;;;;;10.38;6.40;;;-0.20;99.90;;;;;;6184458;23;20025;-81
2023/02/06 18:00:26;;;;;;;13.98;6.07;;;-0.20;99.90;;;;;;6185671;23;20101;-81
2023/02/06 18:03:17;;;;;;;9.80;5.93;;;-0.20;99.90;;;;;;6163713;23;20314;-82
2023/02/06 18:06:04;;;;;;;10.10;5.88;;;-0.20;99.90;;;;;;6188500;23;20156;-82
2023/02/06 18:08:52;;;;;;;8.18;5.70;;;-0.20;99.90;;;;;;6159701;23;20033;-82
2023/02/06 18:11:39;;;;;;;6.95;5.45;;;-0.20;99.90;;;;;;6186031;23;20025;-82
2023/02/06 18:14:27;;;;;;;8.50;5.80;;;-0.20;99.90;;;;;;6166634;23;20025;-82
2023/02/06 18:17:19;;;;;;;11.65;6.45;;;-0.20;99.90;;;;;;6187451;23;20017;-82
2023/02/06 18:20:12;;;;;;;8.88;5.20;;;-0.20;99.90;;;;;;6186765;23;20051;-82
2023/02/06 18:23:02;;;;;;;10.07;6.97;;;-0.20;99.90;;;;;;6165273;23;20048;-81
2023/02/06 18:25:50;;;;;;;13.00;7.05;;;-0.20;99.90;;;;;;6163329;23;20281;-82
2023/02/06 18:28:38;;;;;;;16.92;7.82;;;-0.20;99.90;;;;;;6188119;23;20025;-83
2023/02/06 18:31:28;;;;;;;10.38;7.32;;;-0.20;99.90;;;;;;6166873;23;20532;-81
2023/02/06 18:34:18;;;;;;;16.92;9.23;;;-0.30;99.90;;;;;;6166441;23;20341;-82
2023/02/06 18:37:08;;;;;;;12.45;8.25;;;-0.30;99.90;;;;;;6184987;23;20029;-82
2023/02/06 18:39:58;;;;;;;16.10;8.05;;;-0.20;99.90;;;;;;6162974;23;20025;-82
2023/02/06 18:42:53;;;;;;;19.30;8.80;;;-0.20;99.90;;;;;;6164256;23;20109;-82
2023/02/06 18:45:43;;;;;;;14.10;7.50;;;-0.20;99.90;;;;;;6188073;23;20046;-79
2023/02/06 18:48:32;;;;;;;14.15;7.55;;;-0.10;99.90;;;;;;6167221;23;20025;-82
2023/02/06 18:51:20;;;;;;;19.15;8.38;;;-0.10;99.90;;;;;;6156085;23;20048;-82
2023/02/06 18:54:08;;;;;;;20.65;8.55;;;-0.10;99.90;;;;;;6136783;23;20425;-81
2023/02/06 18:56:58;;;;;;;13.80;8.57;;;-0.10;99.90;;;;;;6134692;23;20036;-80
2023/02/06 18:59:48;;;;;;;18.90;7.55;;;0.00;99.90;;;;;;6135954;23;20029;-82
2023/02/06 19:02:36;;;;;;;13.60;7.05;;;0.00;83.20;;;;;;6158435;23;20362;-80
2023/02/06 19:05:27;;;;;;;12.60;7.28;;;0.00;52.20;;;;;;6157448;23;20032;-82
2023/02/06 19:08:15;;;;;;;13.77;7.27;;;0.00;23.30;;;;;;6156819;23;20084;-82
2023/02/06 19:11:06;;;;;;;15.52;7.78;;;0.00;16.10;;;;;;6156608;23;20053;-80
2023/02/06 19:13:56;;;;;;;11.02;6.55;;;0.00;12.80;;;;;;6156478;23;20084;-79
2023/02/06 19:16:46;;;;;;;15.02;6.47;;;0.00;12.30;;;;;;6155964;23;20083;-80
2023/02/06 19:19:36;;;;;;;21.90;11.38;;;0.00;18.80;;;;;;6157484;23;20091;-80
2023/02/06 19:22:39;;;;;;;15.45;9.10;;;-0.10;49.10;;;;;;6148933;23;20097;-83
2023/02/06 19:25:40;;;;;;;27.02;9.70;;;0.00;99.90;;;;;;6153444;23;20078;-80
2023/02/06 19:28:29;;;;;;;11.88;6.97;;;-0.10;99.90;;;;;;6145860;23;20021;-80
2023/02/06 19:31:22;;;;;;;15.68;8.93;;;0.00;99.90;;;;;;6164605;23;20052;-81
2023/02/06 19:34:10;;;;;;;21.27;10.38;;;-0.10;99.90;;;;;;6142318;23;20041;-80
2023/02/06 19:36:58;;;;;;;15.77;8.98;;;-0.10;99.90;;;;;;6155450;23;20104;-82
2023/02/06 19:39:45;;;;;;;14.25;8.80;;;-0.20;67.70;;;;;;6156816;23;20424;-81
2023/02/06 19:43:00;;;;;;;16.88;9.38;;;-0.30;1.00;;;;;;6154640;23;20108;-80
2023/02/06 19:50:41;;;;;;;19.42;11.43;;;-0.40;99.90;;;;;;6158373;23;20037;-82
2023/02/06 19:53:44;;;;;;;21.00;11.82;;;-0.50;1.00;;;;;;6077754;23;20061;-80
2023/02/06 20:05:25;;;;;;;24.73;14.40;;;-0.70;1.00;;;;;;6133670;23;20515;-81
2023/02/06 20:09:40;;;;;;;25.73;13.82;;;-0.70;6.50;;;;;;6120263;23;20017;-82
2023/02/06 20:21:39;;;;;;;22.33;12.73;;;-0.70;99.90;;;;;;6096112;23;20018;-82
2023/02/06 20:37:22;;;;;;;25.08;14.18;;;-0.50;99.90;;;;;;6017021;23;20038;-81
2023/02/06 20:40:58;;;;;;;25.15;13.70;;;-0.50;99.90;;;;;;6025475;23;20327;-82
2023/02/06 20:44:16;;;;;;;44.03;20.08;;;-0.50;99.90;;;;;;6088488;23;20011;-82
2023/02/06 20:47:03;;;;;;;32.55;14.68;;;-0.50;99.90;;;;;;6136772;23;20025;-81
2023/02/06 20:49:51;;;;;;;30.27;14.77;;;-0.40;99.90;;;;;;6163962;23;20041;-83
2023/02/06 20:52:39;;;;;;;30.30;15.07;;;-0.40;99.90;;;;;;6145556;23;20101;-83
2023/02/06 20:55:28;;;;;;;34.13;15.40;;;-0.40;99.90;;;;;;6146520;23;20033;-83
2023/02/06 20:58:16;;;;;;;29.55;16.35;;;-0.40;99.90;;;;;;6164079;23;20029;-83
2023/02/06 21:01:23;;;;;;;32.55;16.45;;;-0.40;99.90;;;;;;6155333;23;20093;-86
2023/02/06 21:04:14;;;;;;;27.55;15.30;;;-0.40;99.90;;;;;;6138362;23;20026;-83
2023/02/06 21:07:03;;;;;;;28.95;14.90;;;-0.40;99.90;;;;;;6157067;23;20036;-83
2023/02/06 21:09:51;;;;;;;25.15;14.52;;;-0.40;99.90;;;;;;6157144;23;20025;-85
2023/02/06 21:12:40;;;;;;;24.23;14.80;;;-0.40;99.90;;;;;;6134726;23;20337;-84
2023/02/06 21:15:28;;;;;;;29.60;14.75;;;-0.40;99.90;;;;;;6158621;23;20052;-83
2023/02/06 21:18:15;;;;;;;28.42;16.25;;;-0.40;99.90;;;;;;6155086;23;20092;-83
2023/02/06 21:21:09;;;;;;;31.75;15.65;;;-0.30;99.90;;;;;;6157375;23;20061;-82
2023/02/06 21:23:59;;;;;;;29.63;16.50;;;-0.30;99.90;;;;;;6154123;23;20037;-82
2023/02/06 21:26:48;;;;;;;29.90;16.65;;;-0.40;99.90;;;;;;6134428;23;20025;-83
2023/02/06 21:29:36;;;;;;;29.85;16.13;;;-0.40;99.90;;;;;;6156540;23;20025;-84
2023/02/06 21:32:25;;;;;;;28.77;14.88;;;-0.40;99.90;;;;;;6156533;23;20033;-83
2023/02/06 21:35:15;;;;;;;28.38;15.48;;;-0.40;99.90;;;;;;6156138;23;20181;-83
2023/02/06 21:38:03;;;;;;;30.77;17.77;;;-0.40;99.90;;;;;;6138634;23;20044;-83
2023/02/06 21:40:50;;;;;;;27.20;15.93;;;-0.40;99.90;;;;;;6156896;23;20040;-83
2023/02/06 21:43:37;;;;;;;27.17;15.95;;;-0.30;99.90;;;;;;6158075;23;20025;-84
2023/02/06 21:46:25;;;;;;;27.73;15.90;;;-0.40;99.90;;;;;;6137461;23;20064;-82
2023/02/06 21:49:14;;;;;;;26.00;15.18;;;-0.40;99.90;;;;;;6169325;23;20032;-82
2023/02/06 21:52:02;;;;;;;28.48;15.57;;;-0.30;99.90;;;;;;6129228;23;20025;-83
2023/02/06 21:54:49;;;;;;;29.23;15.77;;;-0.40;99.90;;;;;;6174269;23;20026;-81
2023/02/06 21:57:36;;;;;;;29.95;16.02;;;-0.40;99.90;;;;;;6167558;23;20049;-82
2023/02/06 22:00:32;;;;;;;31.60;16.17;;;-0.40;99.90;;;;;;6163355;23;20022;-82
2023/02/06 22:03:22;;;;;;;30.13;14.80;;;-0.30;99.90;;;;;;6166432;23;20021;-83
2023/02/06 22:06:12;;;;;;;28.92;16.75;;;-0.30;99.90;;;;;;6147252;23;20076;-83
2023/02/06 22:09:09;;;;;;;29.77;15.68;;;-0.30;99.90;;;;;;6168764;23;20029;-81
2023/02/06 22:11:57;;;;;;;27.40;15.57;;;-0.30;99.90;;;;;;6167480;23;20076;-81
2023/02/06 22:14:44;;;;;;;27.85;15.95;;;-0.40;99.90;;;;;;6144923;23;20025;-83
2023/02/06 22:17:35;;;;;;;24.52;15.27;;;-0.30;99.90;;;;;;6170195;23;20025;-81
2023/02/06 22:20:22;;;;;;;26.85;16.38;;;-0.30;99.90;;;;;;6150744;23;20292;-81
2023/02/06 22:23:09;;;;;;;23.80;14.73;;;-0.30;99.90;;;;;;6172446;23;20021;-83
2023/02/06 22:25:57;;;;;;;22.55;14.07;;;-0.30;99.90;;;;;;6147822;23;20033;-80
2023/02/06 22:28:45;;;;;;;24.45;15.52;;;-0.30;99.90;;;;;;6168109;23;20053;-82
2023/02/06 22:31:34;;;;;;;27.10;16.13;;;-0.30;99.90;;;;;;6168334;23;20084;-82
2023/02/06 22:34:21;;;;;;;27.55;16.10;;;-0.30;99.90;;;;;;6168430;23;20052;-81
2023/02/06 22:37:08;;;;;;;29.33;15.55;;;-0.30;99.90;;;;;;6169351;23;20033;-82
2023/02/06 22:39:56;;;;;;;25.90;15.02;;;-0.30;99.90;;;;;;6169654;23;20314;-81
2023/02/06 22:42:46;;;;;;;30.67;16.27;;;-0.30;99.90;;;;;;6156586;23;20026;-83
2023/02/06 22:45:36;;;;;;;28.05;16.38;;;-0.30;99.90;;;;;;6157264;23;20519;-81
2023/02/06 22:48:24;;;;;;;32.33;17.70;;;-0.40;99.90;;;;;;6148521;23;20489;-84
2023/02/06 22:51:11;;;;;;;25.80;15.77;;;-0.40;99.90;;;;;;6186213;23;20464;-82
2023/02/06 22:54:01;;;;;;;28.05;16.55;;;-0.50;99.90;;;;;;6185479;23;20100;-81
2023/02/06 22:56:48;;;;;;;25.50;15.95;;;-0.60;99.90;;;;;;6187415;23;20044;-82
2023/02/06 22:59:36;;;;;;;27.05;17.23;;;-0.80;99.90;;;;;;6185909;23;20040;-81
2023/02/06 23:02:23;;;;;;;29.05;17.77;;;-0.80;99.90;;;;;;6166423;23;20040;-82
2023/02/06 23:05:10;;;;;;;32.30;17.30;;;-0.90;99.90;;;;;;6166904;23;20076;-81
2023/02/06 23:07:59;;;;;;;31.52;17.33;;;-1.10;99.90;;;;;;6187178;23;20052;-82
2023/02/06 23:10:50;;;;;;;30.20;18.48;;;-1.10;99.90;;;;;;6187012;23;20025;-84
2023/02/06 23:13:38;;;;;;;29.40;17.30;;;-1.20;99.90;;;;;;6165332;23;20076;-81
2023/02/06 23:16:26;;;;;;;26.65;16.73;;;-1.20;99.90;;;;;;6185904;23;20029;-81
2023/02/06 23:19:15;;;;;;;32.20;18.20;;;-1.30;99.90;;;;;;6186932;23;20033;-80
2023/02/06 23:22:03;;;;;;;32.17;18.45;;;-1.40;99.90;;;;;;6165790;23;20048;-81
2023/02/06 23:24:53;;;;;;;31.30;17.50;;;-1.40;99.90;;;;;;6185566;23;20025;-81
2023/02/06 23:27:40;;;;;;;30.58;17.92;;;-1.40;99.90;;;;;;6167200;23;20097;-82
2023/02/06 23:30:27;;;;;;;28.05;17.08;;;-1.40;99.90;;;;;;6187287;23;20021;-81
2023/02/06 23:33:17;;;;;;;28.55;16.65;;;-1.50;99.90;;;;;;6187645;23;20033;-82
2023/02/06 23:36:06;;;;;;;28.60;17.10;;;-1.50;99.90;;;;;;6167122;23;20111;-82
2023/02/06 23:38:56;;;;;;;28.48;17.52;;;-1.50;59.60;;;;;;6185801;23;20033;-82
2023/02/06 23:41:43;;;;;;;26.05;15.95;;;-1.60;1.00;;;;;;6166946;23;20749;-80
2023/02/06 23:44:31;;;;;;;29.83;16.65;;;-1.60;1.00;;;;;;6188436;23;20079;-81
2023/02/06 23:47:18;;;;;;;27.38;16.58;;;-1.60;1.00;;;;;;6164934;23;20025;-82
2023/02/06 23:50:06;;;;;;;22.73;14.43;;;-1.60;99.90;;;;;;6156556;23;20107;-83
2023/02/06 23:52:58;;;;;;;26.02;15.43;;;-1.60;99.90;;;;;;6157404;23;20022;-82
2023/02/06 23:55:46;;;;;;;19.67;12.30;;;-1.60;99.90;;;;;;6136129;23;20025;-83
2023/02/06 23:58:36;;;;;;;19.73;12.63;;;-1.60;99.90;;;;;;6155743;23;20108;-83
